sensor_id;sensor_type;location;lat;lon;timestamp;P1;durP1;ratioP1;P2;durP2;ratioP2
13321;SDS011;6730;46.248;6.930;2023-07-13T00:01:59;4.43;;;3.47;;
13321;SDS011;6730;46.248;6.930;2023-07-13T00:04:25;4.47;;;3.40;;
13321;SDS011;6730;46.248;6.930;2023-07-13T00:06:50;3.58;;;3.20;;
13321;SDS011;6730;46.248;6.930;2023-07-13T00:09:17;3.80;;;3.28;;
13321;SDS011;6730;46.248;6.930;2023-07-13T00:11:43;3.47;;;3.10;;
13321;SDS011;6730;46.248;6.930;2023-07-13T00:14:10;3.45;;;3.13;;
13321;SDS011;6730;46.248;6.930;2023-07-13T00:16:37;6.07;;;3.00;;
13321;SDS011;6730;46.248;6.930;2023-07-13T00:19:06;2.70;;;2.50;;
13321;SDS011;6730;46.248;6.930;2023-07-13T00:21:31;2.83;;;2.63;;
13321;SDS011;6730;46.248;6.930;2023-07-13T00:23:57;2.55;;;2.35;;
13321;SDS011;6730;46.248;6.930;2023-07-13T00:26:23;3.85;;;2.83;;
13321;SDS011;6730;46.248;6.930;2023-07-13T00:28:49;2.60;;;2.40;;
13321;SDS011;6730;46.248;6.930;2023-07-13T00:31:15;4.50;;;2.22;;
13321;SDS011;6730;46.248;6.930;2023-07-13T00:33:41;3.90;;;2.30;;
13321;SDS011;6730;46.248;6.930;2023-07-13T00:36:07;2.65;;;2.40;;
13321;SDS011;6730;46.248;6.930;2023-07-13T00:38:33;2.50;;;2.30;;
13321;SDS011;6730;46.248;6.930;2023-07-13T00:40:59;2.90;;;2.35;;
13321;SDS011;6730;46.248;6.930;2023-07-13T00:43:25;2.58;;;2.30;;
13321;SDS011;6730;46.248;6.930;2023-07-13T00:48:53;3.28;;;2.20;;
13321;SDS011;6730;46.248;6.930;2023-07-13T00:51:27;3.10;;;1.98;;
13321;SDS011;6730;46.248;6.930;2023-07-13T00:53:57;3.53;;;2.22;;
13321;SDS011;6730;46.248;6.930;2023-07-13T00:56:25;6.43;;;2.40;;
13321;SDS011;6730;46.248;6.930;2023-07-13T00:58:52;3.15;;;2.38;;
13321;SDS011;6730;46.248;6.930;2023-07-13T01:01:22;4.53;;;2.20;;
13321;SDS011;6730;46.248;6.930;2023-07-13T01:03:51;2.40;;;2.20;;
13321;SDS011;6730;46.248;6.930;2023-07-13T01:06:17;4.50;;;2.20;;
13321;SDS011;6730;46.248;6.930;2023-07-13T01:08:42;3.95;;;2.38;;
13321;SDS011;6730;46.248;6.930;2023-07-13T01:11:08;2.88;;;1.80;;
13321;SDS011;6730;46.248;6.930;2023-07-13T01:13:34;4.75;;;2.20;;
13321;SDS011;6730;46.248;6.930;2023-07-13T01:16:01;3.38;;;2.05;;
13321;SDS011;6730;46.248;6.930;2023-07-13T01:18:31;3.42;;;2.10;;
13321;SDS011;6730;46.248;6.930;2023-07-13T01:21:01;3.22;;;2.10;;
13321;SDS011;6730;46.248;6.930;2023-07-13T01:23:30;3.78;;;2.30;;
13321;SDS011;6730;46.248;6.930;2023-07-13T01:25:56;2.33;;;2.00;;
13321;SDS011;6730;46.248;6.930;2023-07-13T01:28:23;3.25;;;2.10;;
13321;SDS011;6730;46.248;6.930;2023-07-13T01:30:52;3.10;;;2.00;;
13321;SDS011;6730;46.248;6.930;2023-07-13T01:33:19;2.25;;;2.05;;
13321;SDS011;6730;46.248;6.930;2023-07-13T01:35:45;3.15;;;2.10;;
13321;SDS011;6730;46.248;6.930;2023-07-13T01:38:13;2.55;;;2.05;;
13321;SDS011;6730;46.248;6.930;2023-07-13T01:40:41;2.55;;;2.35;;
13321;SDS011;6730;46.248;6.930;2023-07-13T01:43:07;2.65;;;2.20;;
13321;SDS011;6730;46.248;6.930;2023-07-13T01:45:33;4.50;;;2.10;;
13321;SDS011;6730;46.248;6.930;2023-07-13T01:47:58;2.30;;;2.10;;
13321;SDS011;6730;46.248;6.930;2023-07-13T01:50:24;2.75;;;2.35;;
13321;SDS011;6730;46.248;6.930;2023-07-13T01:52:58;3.58;;;2.30;;
13321;SDS011;6730;46.248;6.930;2023-07-13T01:55:24;6.40;;;2.90;;
13321;SDS011;6730;46.248;6.930;2023-07-13T01:57:50;2.58;;;2.20;;
13321;SDS011;6730;46.248;6.930;2023-07-13T02:00:16;2.58;;;2.30;;
13321;SDS011;6730;46.248;6.930;2023-07-13T02:02:42;4.75;;;2.42;;
13321;SDS011;6730;46.248;6.930;2023-07-13T02:05:08;2.70;;;2.50;;
13321;SDS011;6730;46.248;6.930;2023-07-13T02:07:33;2.53;;;2.33;;
13321;SDS011;6730;46.248;6.930;2023-07-13T02:09:59;4.10;;;2.55;;
13321;SDS011;6730;46.248;6.930;2023-07-13T02:12:25;4.28;;;2.42;;
13321;SDS011;6730;46.248;6.930;2023-07-13T02:14:50;5.05;;;2.40;;
13321;SDS011;6730;46.248;6.930;2023-07-13T02:17:16;2.92;;;2.50;;
13321;SDS011;6730;46.248;6.930;2023-07-13T02:19:42;2.35;;;2.10;;
13321;SDS011;6730;46.248;6.930;2023-07-13T02:22:07;3.03;;;2.38;;
13321;SDS011;6730;46.248;6.930;2023-07-13T02:24:33;3.72;;;2.33;;
13321;SDS011;6730;46.248;6.930;2023-07-13T02:26:58;2.83;;;2.28;;
13321;SDS011;6730;46.248;6.930;2023-07-13T02:29:24;3.50;;;2.70;;
13321;SDS011;6730;46.248;6.930;2023-07-13T02:31:50;4.60;;;2.47;;
13321;SDS011;6730;46.248;6.930;2023-07-13T02:34:15;5.53;;;2.30;;
13321;SDS011;6730;46.248;6.930;2023-07-13T02:36:41;4.68;;;2.47;;
13321;SDS011;6730;46.248;6.930;2023-07-13T02:39:07;3.65;;;2.53;;
13321;SDS011;6730;46.248;6.930;2023-07-13T02:41:33;3.80;;;2.50;;
13321;SDS011;6730;46.248;6.930;2023-07-13T02:43:59;3.75;;;2.80;;
13321;SDS011;6730;46.248;6.930;2023-07-13T02:46:35;3.25;;;2.85;;
13321;SDS011;6730;46.248;6.930;2023-07-13T02:49:02;3.03;;;2.50;;
13321;SDS011;6730;46.248;6.930;2023-07-13T02:51:28;6.82;;;3.35;;
13321;SDS011;6730;46.248;6.930;2023-07-13T02:53:54;3.55;;;2.78;;
13321;SDS011;6730;46.248;6.930;2023-07-13T02:56:23;3.92;;;2.70;;
13321;SDS011;6730;46.248;6.930;2023-07-13T02:58:51;2.80;;;2.33;;
13321;SDS011;6730;46.248;6.930;2023-07-13T03:01:17;3.42;;;2.65;;
13321;SDS011;6730;46.248;6.930;2023-07-13T03:03:44;3.70;;;2.65;;
13321;SDS011;6730;46.248;6.930;2023-07-13T03:06:11;2.97;;;2.67;;
13321;SDS011;6730;46.248;6.930;2023-07-13T03:08:37;2.47;;;2.28;;
13321;SDS011;6730;46.248;6.930;2023-07-13T03:11:07;3.03;;;2.72;;
13321;SDS011;6730;46.248;6.930;2023-07-13T03:13:38;3.28;;;2.58;;
13321;SDS011;6730;46.248;6.930;2023-07-13T03:16:05;6.45;;;2.92;;
13321;SDS011;6730;46.248;6.930;2023-07-13T03:18:31;6.57;;;2.80;;
13321;SDS011;6730;46.248;6.930;2023-07-13T03:20:57;3.42;;;3.00;;
13321;SDS011;6730;46.248;6.930;2023-07-13T03:23:23;4.85;;;2.60;;
13321;SDS011;6730;46.248;6.930;2023-07-13T03:25:50;3.33;;;2.95;;
13321;SDS011;6730;46.248;6.930;2023-07-13T03:28:25;4.10;;;2.80;;
13321;SDS011;6730;46.248;6.930;2023-07-13T03:30:58;3.35;;;2.70;;
13321;SDS011;6730;46.248;6.930;2023-07-13T03:33:35;4.38;;;2.38;;
13321;SDS011;6730;46.248;6.930;2023-07-13T03:36:02;5.15;;;2.60;;
13321;SDS011;6730;46.248;6.930;2023-07-13T03:38:33;5.47;;;2.63;;
13321;SDS011;6730;46.248;6.930;2023-07-13T03:40:59;3.05;;;2.38;;
13321;SDS011;6730;46.248;6.930;2023-07-13T03:43:25;4.22;;;2.72;;
13321;SDS011;6730;46.248;6.930;2023-07-13T03:45:50;4.32;;;2.60;;
13321;SDS011;6730;46.248;6.930;2023-07-13T03:48:16;2.40;;;2.20;;
13321;SDS011;6730;46.248;6.930;2023-07-13T03:50:42;3.92;;;2.50;;
13321;SDS011;6730;46.248;6.930;2023-07-13T03:53:08;3.00;;;2.70;;
13321;SDS011;6730;46.248;6.930;2023-07-13T03:55:36;3.15;;;2.47;;
13321;SDS011;6730;46.248;6.930;2023-07-13T04:00:51;4.43;;;2.58;;
13321;SDS011;6730;46.248;6.930;2023-07-13T04:03:17;2.88;;;2.58;;
13321;SDS011;6730;46.248;6.930;2023-07-13T04:05:43;5.43;;;2.67;;
13321;SDS011;6730;46.248;6.930;2023-07-13T04:08:08;5.35;;;2.78;;
13321;SDS011;6730;46.248;6.930;2023-07-13T04:10:34;5.57;;;2.88;;
13321;SDS011;6730;46.248;6.930;2023-07-13T04:13:00;4.70;;;3.13;;
13321;SDS011;6730;46.248;6.930;2023-07-13T04:15:27;3.58;;;3.05;;
13321;SDS011;6730;46.248;6.930;2023-07-13T04:17:56;4.65;;;2.90;;
13321;SDS011;6730;46.248;6.930;2023-07-13T04:20:26;3.15;;;2.67;;
13321;SDS011;6730;46.248;6.930;2023-07-13T04:22:52;4.03;;;2.78;;
13321;SDS011;6730;46.248;6.930;2023-07-13T04:25:18;4.07;;;3.00;;
13321;SDS011;6730;46.248;6.930;2023-07-13T04:27:46;3.95;;;3.30;;
13321;SDS011;6730;46.248;6.930;2023-07-13T04:30:12;7.38;;;3.58;;
13321;SDS011;6730;46.248;6.930;2023-07-13T04:32:38;6.00;;;4.57;;
13321;SDS011;6730;46.248;6.930;2023-07-13T04:35:04;8.38;;;4.53;;
13321;SDS011;6730;46.248;6.930;2023-07-13T04:37:30;6.32;;;4.30;;
13321;SDS011;6730;46.248;6.930;2023-07-13T04:40:00;3.72;;;3.38;;
13321;SDS011;6730;46.248;6.930;2023-07-13T04:42:28;4.47;;;3.55;;
13321;SDS011;6730;46.248;6.930;2023-07-13T04:44:54;4.55;;;3.67;;
13321;SDS011;6730;46.248;6.930;2023-07-13T04:47:22;3.88;;;3.58;;
13321;SDS011;6730;46.248;6.930;2023-07-13T04:49:48;5.60;;;3.53;;
13321;SDS011;6730;46.248;6.930;2023-07-13T04:52:32;6.13;;;3.33;;
13321;SDS011;6730;46.248;6.930;2023-07-13T04:55:00;5.07;;;3.80;;
13321;SDS011;6730;46.248;6.930;2023-07-13T04:57:26;8.23;;;4.40;;
13321;SDS011;6730;46.248;6.930;2023-07-13T04:59:52;4.18;;;3.78;;
13321;SDS011;6730;46.248;6.930;2023-07-13T05:02:20;5.20;;;4.47;;
13321;SDS011;6730;46.248;6.930;2023-07-13T05:04:46;4.28;;;3.85;;
13321;SDS011;6730;46.248;6.930;2023-07-13T05:07:13;6.40;;;4.25;;
13321;SDS011;6730;46.248;6.930;2023-07-13T05:09:38;7.55;;;4.07;;
13321;SDS011;6730;46.248;6.930;2023-07-13T05:12:05;4.90;;;4.40;;
13321;SDS011;6730;46.248;6.930;2023-07-13T05:14:32;6.35;;;3.38;;
13321;SDS011;6730;46.248;6.930;2023-07-13T05:16:57;4.75;;;3.70;;
13321;SDS011;6730;46.248;6.930;2023-07-13T05:19:23;4.93;;;3.72;;
13321;SDS011;6730;46.248;6.930;2023-07-13T05:21:49;5.47;;;3.58;;
13321;SDS011;6730;46.248;6.930;2023-07-13T05:24:14;3.42;;;3.13;;
13321;SDS011;6730;46.248;6.930;2023-07-13T05:26:40;6.68;;;3.75;;
13321;SDS011;6730;46.248;6.930;2023-07-13T05:29:05;4.43;;;3.60;;
13321;SDS011;6730;46.248;6.930;2023-07-13T05:31:31;4.70;;;3.42;;
13321;SDS011;6730;46.248;6.930;2023-07-13T05:33:57;3.42;;;3.13;;
13321;SDS011;6730;46.248;6.930;2023-07-13T05:36:22;3.67;;;3.25;;
13321;SDS011;6730;46.248;6.930;2023-07-13T05:38:48;5.55;;;3.47;;
13321;SDS011;6730;46.248;6.930;2023-07-13T05:41:13;4.60;;;3.80;;
13321;SDS011;6730;46.248;6.930;2023-07-13T05:43:39;4.95;;;4.15;;
13321;SDS011;6730;46.248;6.930;2023-07-13T05:46:05;4.30;;;3.65;;
13321;SDS011;6730;46.248;6.930;2023-07-13T05:48:30;3.78;;;3.00;;
13321;SDS011;6730;46.248;6.930;2023-07-13T05:50:56;4.10;;;3.67;;
13321;SDS011;6730;46.248;6.930;2023-07-13T05:53:21;5.10;;;4.15;;
13321;SDS011;6730;46.248;6.930;2023-07-13T05:55:47;5.50;;;3.50;;
13321;SDS011;6730;46.248;6.930;2023-07-13T05:58:15;3.97;;;3.50;;
13321;SDS011;6730;46.248;6.930;2023-07-13T06:00:43;5.05;;;4.13;;
13321;SDS011;6730;46.248;6.930;2023-07-13T06:03:09;4.35;;;3.85;;
13321;SDS011;6730;46.248;6.930;2023-07-13T06:05:35;5.63;;;3.70;;
13321;SDS011;6730;46.248;6.930;2023-07-13T06:08:02;39.50;;;6.03;;
13321;SDS011;6730;46.248;6.930;2023-07-13T06:10:29;16.02;;;6.05;;
13321;SDS011;6730;46.248;6.930;2023-07-13T06:12:57;8.30;;;4.28;;
13321;SDS011;6730;46.248;6.930;2023-07-13T06:15:22;5.93;;;3.95;;
13321;SDS011;6730;46.248;6.930;2023-07-13T06:17:48;4.07;;;3.13;;
13321;SDS011;6730;46.248;6.930;2023-07-13T06:20:14;5.85;;;3.78;;
13321;SDS011;6730;46.248;6.930;2023-07-13T06:22:39;5.25;;;4.00;;
13321;SDS011;6730;46.248;6.930;2023-07-13T06:25:05;3.92;;;3.15;;
13321;SDS011;6730;46.248;6.930;2023-07-13T06:27:31;7.78;;;3.75;;
13321;SDS011;6730;46.248;6.930;2023-07-13T06:29:57;4.28;;;2.70;;
13321;SDS011;6730;46.248;6.930;2023-07-13T06:32:22;5.07;;;3.58;;
13321;SDS011;6730;46.248;6.930;2023-07-13T06:34:48;4.07;;;2.97;;
13321;SDS011;6730;46.248;6.930;2023-07-13T06:37:14;6.32;;;3.40;;
13321;SDS011;6730;46.248;6.930;2023-07-13T06:39:39;6.53;;;3.97;;
13321;SDS011;6730;46.248;6.930;2023-07-13T06:42:05;3.90;;;3.20;;
13321;SDS011;6730;46.248;6.930;2023-07-13T06:44:31;6.55;;;3.50;;
13321;SDS011;6730;46.248;6.930;2023-07-13T06:46:57;5.13;;;3.42;;
13321;SDS011;6730;46.248;6.930;2023-07-13T06:49:23;4.80;;;3.55;;
13321;SDS011;6730;46.248;6.930;2023-07-13T06:51:48;3.47;;;3.05;;
13321;SDS011;6730;46.248;6.930;2023-07-13T06:54:14;4.38;;;3.47;;
13321;SDS011;6730;46.248;6.930;2023-07-13T06:56:39;3.30;;;3.00;;
13321;SDS011;6730;46.248;6.930;2023-07-13T06:59:05;4.82;;;2.78;;
13321;SDS011;6730;46.248;6.930;2023-07-13T07:01:31;2.85;;;2.60;;
13321;SDS011;6730;46.248;6.930;2023-07-13T07:03:56;5.60;;;2.90;;
13321;SDS011;6730;46.248;6.930;2023-07-13T07:06:22;4.28;;;3.30;;
13321;SDS011;6730;46.248;6.930;2023-07-13T07:08:49;4.20;;;3.10;;
13321;SDS011;6730;46.248;6.930;2023-07-13T07:11:21;4.97;;;4.35;;
13321;SDS011;6730;46.248;6.930;2023-07-13T07:13:49;18.13;;;5.00;;
13321;SDS011;6730;46.248;6.930;2023-07-13T07:16:16;260.00;;;15.25;;
13321;SDS011;6730;46.248;6.930;2023-07-13T07:18:42;178.60;;;11.45;;
13321;SDS011;6730;46.248;6.930;2023-07-13T07:21:08;307.75;;;22.27;;
13321;SDS011;6730;46.248;6.930;2023-07-13T07:23:34;143.98;;;10.35;;
13321;SDS011;6730;46.248;6.930;2023-07-13T07:25:59;320.52;;;19.13;;
13321;SDS011;6730;46.248;6.930;2023-07-13T07:28:25;116.22;;;8.95;;
13321;SDS011;6730;46.248;6.930;2023-07-13T07:30:53;258.63;;;15.43;;
13321;SDS011;6730;46.248;6.930;2023-07-13T07:33:20;379.13;;;22.90;;
13321;SDS011;6730;46.248;6.930;2023-07-13T07:35:46;380.38;;;22.70;;
13321;SDS011;6730;46.248;6.930;2023-07-13T07:38:11;258.98;;;15.68;;
13321;SDS011;6730;46.248;6.930;2023-07-13T07:40:37;210.77;;;13.68;;
13321;SDS011;6730;46.248;6.930;2023-07-13T07:43:05;562.83;;;33.50;;
13321;SDS011;6730;46.248;6.930;2023-07-13T07:45:34;169.38;;;11.13;;
13321;SDS011;6730;46.248;6.930;2023-07-13T07:48:02;150.02;;;15.65;;
13321;SDS011;6730;46.248;6.930;2023-07-13T07:50:28;216.88;;;14.05;;
13321;SDS011;6730;46.248;6.930;2023-07-13T07:52:54;105.40;;;9.35;;
13321;SDS011;6730;46.248;6.930;2023-07-13T07:55:23;4.40;;;3.85;;
13321;SDS011;6730;46.248;6.930;2023-07-13T07:57:51;37.42;;;5.28;;
13321;SDS011;6730;46.248;6.930;2023-07-13T08:00:17;8.85;;;3.45;;
13321;SDS011;6730;46.248;6.930;2023-07-13T08:02:43;3.55;;;2.58;;
13321;SDS011;6730;46.248;6.930;2023-07-13T08:05:10;2.38;;;2.17;;
13321;SDS011;6730;46.248;6.930;2023-07-13T08:07:37;2.58;;;2.38;;
13321;SDS011;6730;46.248;6.930;2023-07-13T08:10:04;5.97;;;2.70;;
13321;SDS011;6730;46.248;6.930;2023-07-13T08:12:33;3.05;;;2.55;;
13321;SDS011;6730;46.248;6.930;2023-07-13T08:14:59;2.65;;;2.38;;
13321;SDS011;6730;46.248;6.930;2023-07-13T08:17:26;3.00;;;1.90;;
13321;SDS011;6730;46.248;6.930;2023-07-13T08:19:51;2.70;;;2.10;;
13321;SDS011;6730;46.248;6.930;2023-07-13T08:22:17;2.35;;;2.10;;
13321;SDS011;6730;46.248;6.930;2023-07-13T08:24:43;2.35;;;1.98;;
13321;SDS011;6730;46.248;6.930;2023-07-13T08:27:09;1.92;;;1.77;;
13321;SDS011;6730;46.248;6.930;2023-07-13T08:29:36;3.47;;;1.70;;
13321;SDS011;6730;46.248;6.930;2023-07-13T08:32:03;3.97;;;2.30;;
13321;SDS011;6730;46.248;6.930;2023-07-13T08:34:30;2.30;;;2.10;;
13321;SDS011;6730;46.248;6.930;2023-07-13T08:36:56;6.35;;;2.50;;
13321;SDS011;6730;46.248;6.930;2023-07-13T08:39:21;3.28;;;2.00;;
13321;SDS011;6730;46.248;6.930;2023-07-13T08:41:47;2.65;;;2.20;;
13321;SDS011;6730;46.248;6.930;2023-07-13T08:44:23;2.53;;;2.33;;
13321;SDS011;6730;46.248;6.930;2023-07-13T08:47:05;2.40;;;2.00;;
13321;SDS011;6730;46.248;6.930;2023-07-13T08:49:34;3.00;;;1.95;;
13321;SDS011;6730;46.248;6.930;2023-07-13T08:52:02;2.00;;;1.90;;
13321;SDS011;6730;46.248;6.930;2023-07-13T08:54:50;2.28;;;2.08;;
13321;SDS011;6730;46.248;6.930;2023-07-13T08:57:20;1.83;;;1.70;;
13321;SDS011;6730;46.248;6.930;2023-07-13T08:59:49;2.95;;;2.13;;
13321;SDS011;6730;46.248;6.930;2023-07-13T09:05:29;1.92;;;1.70;;
13321;SDS011;6730;46.248;6.930;2023-07-13T09:10:48;2.70;;;1.80;;
13321;SDS011;6730;46.248;6.930;2023-07-13T09:13:39;2.30;;;2.10;;
13321;SDS011;6730;46.248;6.930;2023-07-13T09:16:16;2.38;;;2.20;;
13321;SDS011;6730;46.248;6.930;2023-07-13T09:18:42;2.60;;;2.08;;
13321;SDS011;6730;46.248;6.930;2023-07-13T09:23:39;2.78;;;1.83;;
13321;SDS011;6730;46.248;6.930;2023-07-13T09:28:42;2.13;;;1.90;;
13321;SDS011;6730;46.248;6.930;2023-07-13T09:31:17;3.22;;;2.40;;
13321;SDS011;6730;46.248;6.930;2023-07-13T09:33:57;2.58;;;2.30;;
13321;SDS011;6730;46.248;6.930;2023-07-13T09:36:24;2.30;;;2.10;;
13321;SDS011;6730;46.248;6.930;2023-07-13T09:41:36;2.58;;;2.08;;
13321;SDS011;6730;46.248;6.930;2023-07-13T09:46:56;2.50;;;2.30;;
13321;SDS011;6730;46.248;6.930;2023-07-13T09:49:29;1.95;;;1.85;;
13321;SDS011;6730;46.248;6.930;2023-07-13T09:51:59;2.22;;;2.08;;
13321;SDS011;6730;46.248;6.930;2023-07-13T09:54:29;2.40;;;2.20;;
13321;SDS011;6730;46.248;6.930;2023-07-13T09:56:59;3.38;;;2.30;;
13321;SDS011;6730;46.248;6.930;2023-07-13T09:59:29;2.13;;;1.92;;
13321;SDS011;6730;46.248;6.930;2023-07-13T10:01:56;1.92;;;1.73;;
13321;SDS011;6730;46.248;6.930;2023-07-13T10:04:26;1.70;;;1.60;;
13321;SDS011;6730;46.248;6.930;2023-07-13T10:07:05;2.55;;;2.20;;
13321;SDS011;6730;46.248;6.930;2023-07-13T10:09:33;2.00;;;1.80;;
13321;SDS011;6730;46.248;6.930;2023-07-13T10:11:59;2.30;;;1.73;;
13321;SDS011;6730;46.248;6.930;2023-07-13T10:14:24;1.70;;;1.60;;
13321;SDS011;6730;46.248;6.930;2023-07-13T10:16:52;2.28;;;1.77;;
13321;SDS011;6730;46.248;6.930;2023-07-13T10:19:23;3.20;;;1.55;;
13321;SDS011;6730;46.248;6.930;2023-07-13T10:26:52;2.00;;;1.80;;
13321;SDS011;6730;46.248;6.930;2023-07-13T10:29:29;2.60;;;1.70;;
13321;SDS011;6730;46.248;6.930;2023-07-13T10:32:00;1.92;;;1.77;;
13321;SDS011;6730;46.248;6.930;2023-07-13T10:34:26;1.70;;;1.48;;
13321;SDS011;6730;46.248;6.930;2023-07-13T10:36:52;1.88;;;1.60;;
13321;SDS011;6730;46.248;6.930;2023-07-13T10:39:19;1.98;;;1.70;;
13321;SDS011;6730;46.248;6.930;2023-07-13T10:41:53;1.88;;;1.60;;
13321;SDS011;6730;46.248;6.930;2023-07-13T10:44:30;2.10;;;1.77;;
13321;SDS011;6730;46.248;6.930;2023-07-13T10:47:01;1.88;;;1.70;;
13321;SDS011;6730;46.248;6.930;2023-07-13T10:49:32;1.90;;;1.70;;
13321;SDS011;6730;46.248;6.930;2023-07-13T10:52:00;2.35;;;1.52;;
13321;SDS011;6730;46.248;6.930;2023-07-13T10:54:27;2.55;;;1.83;;
13321;SDS011;6730;46.248;6.930;2023-07-13T10:59:43;2.25;;;1.77;;
13321;SDS011;6730;46.248;6.930;2023-07-13T11:04:51;2.38;;;2.13;;
13321;SDS011;6730;46.248;6.930;2023-07-13T11:07:20;2.45;;;2.13;;
13321;SDS011;6730;46.248;6.930;2023-07-13T11:09:53;2.78;;;1.80;;
13321;SDS011;6730;46.248;6.930;2023-07-13T11:27:52;3.67;;;2.17;;
13321;SDS011;6730;46.248;6.930;2023-07-13T11:36:14;3.33;;;2.10;;
13321;SDS011;6730;46.248;6.930;2023-07-13T11:41:54;2.50;;;2.30;;
13321;SDS011;6730;46.248;6.930;2023-07-13T11:44:23;2.50;;;2.30;;
13321;SDS011;6730;46.248;6.930;2023-07-13T11:46:54;3.67;;;2.10;;
13321;SDS011;6730;46.248;6.930;2023-07-13T11:49:29;2.83;;;2.50;;
13321;SDS011;6730;46.248;6.930;2023-07-13T11:51:56;2.33;;;2.10;;
13321;SDS011;6730;46.248;6.930;2023-07-13T11:54:32;2.65;;;1.77;;
13321;SDS011;6730;46.248;6.930;2023-07-13T11:57:01;2.55;;;2.00;;
13321;SDS011;6730;46.248;6.930;2023-07-13T11:59:31;2.78;;;1.65;;
13321;SDS011;6730;46.248;6.930;2023-07-13T12:01:58;3.10;;;1.90;;
13321;SDS011;6730;46.248;6.930;2023-07-13T12:04:25;2.65;;;1.70;;
13321;SDS011;6730;46.248;6.930;2023-07-13T12:07:03;2.03;;;1.83;;
13321;SDS011;6730;46.248;6.930;2023-07-13T12:09:31;4.15;;;2.15;;
13321;SDS011;6730;46.248;6.930;2023-07-13T12:11:58;4.65;;;1.92;;
13321;SDS011;6730;46.248;6.930;2023-07-13T12:14:25;3.40;;;1.90;;
13321;SDS011;6730;46.248;6.930;2023-07-13T12:16:51;1.88;;;1.70;;
13321;SDS011;6730;46.248;6.930;2023-07-13T12:19:23;1.80;;;1.70;;
13321;SDS011;6730;46.248;6.930;2023-07-13T12:21:52;1.70;;;1.60;;
13321;SDS011;6730;46.248;6.930;2023-07-13T12:24:21;1.83;;;1.70;;
13321;SDS011;6730;46.248;6.930;2023-07-13T12:26:54;2.70;;;1.98;;
13321;SDS011;6730;46.248;6.930;2023-07-13T12:29:25;3.15;;;2.00;;
13321;SDS011;6730;46.248;6.930;2023-07-13T12:31:51;2.03;;;1.80;;
13321;SDS011;6730;46.248;6.930;2023-07-13T12:34:21;2.38;;;1.63;;
13321;SDS011;6730;46.248;6.930;2023-07-13T12:39:34;2.53;;;1.63;;
13321;SDS011;6730;46.248;6.930;2023-07-13T12:42:28;1.70;;;1.60;;
13321;SDS011;6730;46.248;6.930;2023-07-13T12:44:58;2.72;;;1.85;;
13321;SDS011;6730;46.248;6.930;2023-07-13T12:47:30;2.83;;;1.75;;
13321;SDS011;6730;46.248;6.930;2023-07-13T12:50:04;4.30;;;1.80;;
13321;SDS011;6730;46.248;6.930;2023-07-13T12:52:37;1.50;;;1.40;;
13321;SDS011;6730;46.248;6.930;2023-07-13T12:57:43;1.77;;;1.50;;
13321;SDS011;6730;46.248;6.930;2023-07-13T13:00:28;1.88;;;1.77;;
13321;SDS011;6730;46.248;6.930;2023-07-13T13:02:58;1.83;;;1.70;;
13321;SDS011;6730;46.248;6.930;2023-07-13T13:05:32;1.70;;;1.60;;
13321;SDS011;6730;46.248;6.930;2023-07-13T13:07:58;1.70;;;1.60;;
13321;SDS011;6730;46.248;6.930;2023-07-13T13:10:25;2.67;;;1.73;;
13321;SDS011;6730;46.248;6.930;2023-07-13T13:12:51;2.70;;;1.70;;
13321;SDS011;6730;46.248;6.930;2023-07-13T13:15:17;1.63;;;1.52;;
13321;SDS011;6730;46.248;6.930;2023-07-13T13:17:43;2.25;;;1.65;;
13321;SDS011;6730;46.248;6.930;2023-07-13T13:20:16;3.03;;;1.77;;
13321;SDS011;6730;46.248;6.930;2023-07-13T13:22:43;1.63;;;1.50;;
13321;SDS011;6730;46.248;6.930;2023-07-13T13:25:10;3.67;;;1.80;;
13321;SDS011;6730;46.248;6.930;2023-07-13T13:27:36;2.45;;;1.70;;
13321;SDS011;6730;46.248;6.930;2023-07-13T13:30:08;3.08;;;1.75;;
13321;SDS011;6730;46.248;6.930;2023-07-13T13:32:41;2.65;;;1.60;;
13321;SDS011;6730;46.248;6.930;2023-07-13T13:35:15;3.75;;;1.85;;
13321;SDS011;6730;46.248;6.930;2023-07-13T13:37:43;2.88;;;1.70;;
13321;SDS011;6730;46.248;6.930;2023-07-13T13:40:14;2.55;;;1.60;;
13321;SDS011;6730;46.248;6.930;2023-07-13T13:42:41;2.90;;;1.45;;
13321;SDS011;6730;46.248;6.930;2023-07-13T13:45:08;2.58;;;1.60;;
13321;SDS011;6730;46.248;6.930;2023-07-13T13:47:35;2.30;;;1.60;;
13321;SDS011;6730;46.248;6.930;2023-07-13T13:50:01;1.60;;;1.50;;
13321;SDS011;6730;46.248;6.930;2023-07-13T13:52:34;2.13;;;1.60;;
13321;SDS011;6730;46.248;6.930;2023-07-13T13:55:00;1.95;;;1.40;;
13321;SDS011;6730;46.248;6.930;2023-07-13T13:57:26;2.42;;;1.58;;
13321;SDS011;6730;46.248;6.930;2023-07-13T13:59:51;2.05;;;1.63;;
13321;SDS011;6730;46.248;6.930;2023-07-13T14:02:26;1.90;;;1.33;;
13321;SDS011;6730;46.248;6.930;2023-07-13T14:04:54;2.60;;;1.63;;
13321;SDS011;6730;46.248;6.930;2023-07-13T14:07:22;2.67;;;1.48;;
13321;SDS011;6730;46.248;6.930;2023-07-13T14:09:48;1.77;;;1.63;;
13321;SDS011;6730;46.248;6.930;2023-07-13T14:12:13;2.17;;;1.70;;
13321;SDS011;6730;46.248;6.930;2023-07-13T14:14:39;2.17;;;1.63;;
13321;SDS011;6730;46.248;6.930;2023-07-13T14:17:09;1.90;;;1.77;;
13321;SDS011;6730;46.248;6.930;2023-07-13T14:19:50;4.07;;;1.80;;
13321;SDS011;6730;46.248;6.930;2023-07-13T14:22:19;2.15;;;1.80;;
13321;SDS011;6730;46.248;6.930;2023-07-13T14:24:45;1.75;;;1.30;;
13321;SDS011;6730;46.248;6.930;2023-07-13T14:27:11;2.10;;;1.80;;
13321;SDS011;6730;46.248;6.930;2023-07-13T14:29:38;2.55;;;1.70;;
13321;SDS011;6730;46.248;6.930;2023-07-13T14:32:05;2.03;;;1.60;;
13321;SDS011;6730;46.248;6.930;2023-07-13T14:34:33;1.73;;;1.40;;
13321;SDS011;6730;46.248;6.930;2023-07-13T14:36:59;1.95;;;1.45;;
13321;SDS011;6730;46.248;6.930;2023-07-13T14:39:24;1.58;;;1.48;;
13321;SDS011;6730;46.248;6.930;2023-07-13T14:41:51;3.28;;;1.65;;
13321;SDS011;6730;46.248;6.930;2023-07-13T14:44:20;1.45;;;1.30;;
13321;SDS011;6730;46.248;6.930;2023-07-13T14:46:51;1.70;;;1.60;;
13321;SDS011;6730;46.248;6.930;2023-07-13T14:51:49;1.77;;;1.63;;
13321;SDS011;6730;46.248;6.930;2023-07-13T14:54:14;1.70;;;1.60;;
13321;SDS011;6730;46.248;6.930;2023-07-13T14:56:40;1.73;;;1.40;;
13321;SDS011;6730;46.248;6.930;2023-07-13T14:59:05;1.77;;;1.40;;
13321;SDS011;6730;46.248;6.930;2023-07-13T15:01:32;1.70;;;1.60;;
13321;SDS011;6730;46.248;6.930;2023-07-13T15:03:59;1.70;;;1.35;;
13321;SDS011;6730;46.248;6.930;2023-07-13T15:06:25;1.70;;;1.45;;
13321;SDS011;6730;46.248;6.930;2023-07-13T15:08:51;4.10;;;1.63;;
13321;SDS011;6730;46.248;6.930;2023-07-13T15:11:17;1.60;;;1.50;;
13321;SDS011;6730;46.248;6.930;2023-07-13T15:13:43;2.35;;;1.48;;
13321;SDS011;6730;46.248;6.930;2023-07-13T15:16:16;1.60;;;1.50;;
13321;SDS011;6730;46.248;6.930;2023-07-13T15:18:44;1.48;;;1.38;;
13321;SDS011;6730;46.248;6.930;2023-07-13T15:21:11;1.65;;;1.55;;
13321;SDS011;6730;46.248;6.930;2023-07-13T15:23:44;1.58;;;1.48;;
13321;SDS011;6730;46.248;6.930;2023-07-13T15:26:12;2.78;;;1.58;;
13321;SDS011;6730;46.248;6.930;2023-07-13T15:28:39;3.20;;;1.80;;
13321;SDS011;6730;46.248;6.930;2023-07-13T15:31:11;1.58;;;1.38;;
13321;SDS011;6730;46.248;6.930;2023-07-13T15:33:46;2.35;;;1.67;;
13321;SDS011;6730;46.248;6.930;2023-07-13T15:36:14;1.63;;;1.52;;
13321;SDS011;6730;46.248;6.930;2023-07-13T15:38:51;1.60;;;1.50;;
13321;SDS011;6730;46.248;6.930;2023-07-13T15:41:20;1.90;;;1.40;;
13321;SDS011;6730;46.248;6.930;2023-07-13T15:43:49;1.52;;;1.40;;
13321;SDS011;6730;46.248;6.930;2023-07-13T15:46:17;2.22;;;1.40;;
13321;SDS011;6730;46.248;6.930;2023-07-13T15:48:47;2.47;;;1.58;;
13321;SDS011;6730;46.248;6.930;2023-07-13T15:51:18;3.60;;;1.50;;
13321;SDS011;6730;46.248;6.930;2023-07-13T15:53:59;2.20;;;1.55;;
13321;SDS011;6730;46.248;6.930;2023-07-13T15:56:29;1.90;;;1.58;;
13321;SDS011;6730;46.248;6.930;2023-07-13T15:58:58;1.42;;;1.33;;
13321;SDS011;6730;46.248;6.930;2023-07-13T16:01:24;1.70;;;1.60;;
13321;SDS011;6730;46.248;6.930;2023-07-13T16:03:50;2.00;;;1.70;;
13321;SDS011;6730;46.248;6.930;2023-07-13T16:06:22;1.67;;;1.58;;
13321;SDS011;6730;46.248;6.930;2023-07-13T16:08:50;1.95;;;1.70;;
13321;SDS011;6730;46.248;6.930;2023-07-13T16:11:21;1.92;;;1.60;;